Marcellus, MI

7:31 PM EDT on August 30, 2016 (GMT -0400)
Farming/Agriculture | | Change Station

Elev 864 ft 42.05 °N, 85.91 °W | Updated 12 seconds ago

Mostly Cloudy
Mostly Cloudy
73.0 °F
Feels Like 73.0 °F
N
0.0
Wind Variable Wind from SSE
Gusts 0.0 mph

Today
High -- | Low -- °F
--% Chance of Precip.
Yesterday
High -- | Low -- °F
Precip. -- in
Pressure 30.05 in
Visibility 10.0 miles
Clouds Scattered Clouds 2500 ft
Scattered Clouds 5000 ft
Mostly Cloudy 12000 ft
Dew Point 71 °F
Humidity 93%
Rainfall 0.93 in
Snow Depth Not available.
7:07 AM 8:19 PM
Waning Crescent, 2% visible
METAR KHAI 302314Z AUTO 00000KT 10SM SCT025 SCT050 BKN120 22/21 A3005 RMK AO2 T02220207
Pressure 30.05 in
Visibility 10.0 miles
Clouds Scattered Clouds 2500 ft
Scattered Clouds 5000 ft
Mostly Cloudy 12000 ft
Dew Point 71 °F
Humidity 93%
Rainfall 0.93 in
Snow Depth Not available.
7:07 AM 8:19 PM
Waning Crescent, 2% visible
METAR KHAI 302314Z AUTO 00000KT 10SM SCT025 SCT050 BKN120 22/21 A3005 RMK AO2 T02220207

10-Day Weather Forecast

Almanac

Astronomy

Aug. 30, 2016 Rise Set
Actual Time
Civil Twilight
Nautical Twilight
Astronomical Twilight
Moon
Length of Visible Light
Length of Day
Tomorrow will be .
, % of the Moon is Illuminated

Today's Extremes

State Highs State Lows

Community

WunderPhotos

Upload Photos

1,935,945 photos uploaded!

WunderBlog® & News

Nearby

Air Quality

  Air Quality AQ Index Pollutant
Not available.

Snow Depth

Station Depth Elevation

Earthquake Activity

City Distance Mag. Time & Date
Minimum magnitude displayed is 2.5.

Coastal Water Temperatures

Place Temperature

Stations

Nearby Weather Stations

Station Location Temp. Windchill Dew Point Humidity Wind Precip. Elev Updated Type
                   

Watches & Warnings

There are currently no watches in effect.